createdAt,value
2022-09-20T00:00:50.292Z,1.17
2022-09-20T00:03:17.530Z,1.02
2022-09-20T00:05:45.906Z,1.00
2022-09-20T00:08:15.050Z,1.13
2022-09-20T00:10:42.788Z,1.30
2022-09-20T00:13:12.457Z,0.75
2022-09-20T00:15:44.195Z,1.10
2022-09-20T00:18:11.941Z,0.52
2022-09-20T00:20:49.168Z,0.80
2022-09-20T00:23:16.702Z,0.75
2022-09-20T00:25:43.703Z,1.05
2022-09-20T00:28:10.858Z,1.17
2022-09-20T00:30:38.342Z,1.65
2022-09-20T00:33:05.348Z,1.20
2022-09-20T00:35:32.075Z,1.15
2022-09-20T00:37:58.672Z,1.02
2022-09-20T00:40:26.987Z,0.70
2022-09-20T00:42:54.663Z,0.57
2022-09-20T00:45:29.522Z,0.70
2022-09-20T00:48:13.543Z,0.90
2022-09-20T00:50:46.986Z,0.80
2022-09-20T00:53:19.414Z,1.42
2022-09-20T00:55:54.175Z,1.08
2022-09-20T00:58:22.339Z,1.10
2022-09-20T01:00:51.280Z,1.00
2022-09-20T01:03:22.821Z,0.80
2022-09-20T01:05:53.906Z,1.25
2022-09-20T01:08:24.461Z,1.13
2022-09-20T01:10:52.459Z,1.35
2022-09-20T01:13:18.981Z,1.00
2022-09-20T01:15:48.055Z,1.05
2022-09-20T01:18:16.288Z,1.13
2022-09-20T01:20:45.651Z,1.52
2022-09-20T01:23:26.438Z,1.02
2022-09-20T01:26:09.632Z,0.95
2022-09-20T01:28:37.080Z,1.30
2022-09-20T01:31:22.545Z,1.20
2022-09-20T01:33:53.197Z,1.30
2022-09-20T01:36:31.592Z,1.15
2022-09-20T01:38:58.187Z,0.93
2022-09-20T01:41:33.581Z,1.30
2022-09-20T01:46:36.996Z,1.13
2022-09-20T01:49:18.148Z,1.13
2022-09-20T01:52:12.230Z,0.75
2022-09-20T01:55:27.170Z,1.67
2022-09-20T01:58:15.457Z,1.55
2022-09-20T02:01:11.675Z,1.58
2022-09-20T02:03:57.419Z,1.27
2022-09-20T02:07:01.741Z,1.40
2022-09-20T02:10:10.500Z,1.75
2022-09-20T02:12:56.433Z,1.10
2022-09-20T02:18:46.907Z,1.33
2022-09-20T02:21:37.987Z,1.48
2022-09-20T02:24:29.678Z,1.45
2022-09-20T02:27:20.561Z,1.40
2022-09-20T02:30:08.665Z,1.85
2022-09-20T02:32:54.263Z,1.67
2022-09-20T02:35:27.585Z,1.45
2022-09-20T02:38:15.739Z,0.93
2022-09-20T02:41:06.977Z,1.38
2022-09-20T02:43:44.422Z,1.15
2022-09-20T02:46:19.471Z,1.38
2022-09-20T02:48:56.210Z,1.80
2022-09-20T02:51:48.089Z,1.60
2022-09-20T02:54:26.600Z,1.85
2022-09-20T02:57:11.482Z,1.50
2022-09-20T02:59:52.296Z,1.92
2022-09-20T03:02:32.631Z,1.15
2022-09-20T03:05:18.119Z,1.92
2022-09-20T03:08:03.263Z,1.70
2022-09-20T03:10:52.139Z,1.88
2022-09-20T03:14:05.221Z,2.40
2022-09-20T03:16:52.044Z,1.92
2022-09-20T03:19:38.081Z,1.98
2022-09-20T03:22:36.715Z,1.58
2022-09-20T03:25:15.463Z,1.48
2022-09-20T03:28:03.983Z,1.77
2022-09-20T03:30:48.820Z,2.30
2022-09-20T03:33:36.625Z,2.28
2022-09-20T03:36:11.076Z,1.67
2022-09-20T03:39:05.896Z,2.20
2022-09-20T03:41:38.725Z,1.70
2022-09-20T03:44:28.271Z,2.08
2022-09-20T03:47:15.188Z,1.60
2022-09-20T03:50:21.431Z,1.75
2022-09-20T03:53:06.648Z,2.35
2022-09-20T03:55:48.510Z,2.22
2022-09-20T03:58:29.171Z,1.73
2022-09-20T04:01:01.699Z,1.73
2022-09-20T04:03:47.196Z,1.80
2022-09-20T04:06:33.380Z,2.58
2022-09-20T04:09:29.101Z,1.88
2022-09-20T04:12:12.541Z,2.45
2022-09-20T04:14:53.203Z,1.60
2022-09-20T04:17:35.614Z,1.45
2022-09-20T04:20:44.220Z,2.42
2022-09-20T04:23:28.383Z,1.75
2022-09-20T04:25:55.250Z,2.20
2022-09-20T04:28:28.527Z,1.90
2022-09-20T04:31:05.495Z,1.67
2022-09-20T04:33:39.906Z,1.70
2022-09-20T04:36:30.413Z,1.50
2022-09-20T04:39:15.866Z,2.47
2022-09-20T04:42:08.478Z,1.80
2022-09-20T04:44:53.606Z,1.85
2022-09-20T04:47:36.696Z,2.77
2022-09-20T04:50:31.239Z,1.90
2022-09-20T04:53:16.850Z,1.77
2022-09-20T04:55:50.571Z,2.30
2022-09-20T04:58:36.223Z,1.70
2022-09-20T05:01:10.942Z,2.35
2022-09-20T05:04:11.245Z,1.98
2022-09-20T05:07:07.279Z,1.88
2022-09-20T05:09:42.909Z,2.03
2022-09-20T05:12:27.167Z,2.08
2022-09-20T05:15:09.421Z,1.70
2022-09-20T05:18:00.271Z,1.60
2022-09-20T05:20:44.767Z,1.85
2022-09-20T05:23:22.312Z,1.75
2022-09-20T05:25:58.217Z,2.25
2022-09-20T05:28:44.699Z,1.73
2022-09-20T05:31:28.755Z,1.90
2022-09-20T05:34:11.793Z,1.42
2022-09-20T05:36:47.701Z,1.90
2022-09-20T05:39:46.787Z,2.45
2022-09-20T05:42:24.163Z,1.75
2022-09-20T05:45:18.661Z,2.17
2022-09-20T05:48:04.047Z,1.85
2022-09-20T05:50:59.519Z,1.83
2022-09-20T05:53:55.193Z,2.33
2022-09-20T05:56:30.839Z,2.15
2022-09-20T05:59:22.224Z,2.63
2022-09-20T06:02:23.729Z,1.77
2022-09-20T06:05:03.425Z,1.90
2022-09-20T06:07:48.376Z,2.00
2022-09-20T06:10:31.041Z,1.83
2022-09-20T06:13:16.877Z,1.88
2022-09-20T06:15:44.963Z,1.60
2022-09-20T06:18:29.235Z,1.88
2022-09-20T06:21:17.672Z,2.35
2022-09-20T06:23:44.495Z,1.90
2022-09-20T06:26:17.238Z,1.90
2022-09-20T06:28:58.349Z,1.67
2022-09-20T06:31:26.362Z,1.70
2022-09-20T06:34:05.515Z,1.55
2022-09-20T06:36:52.840Z,2.00
2022-09-20T06:39:53.888Z,1.90
2022-09-20T06:42:23.334Z,1.95
2022-09-20T06:44:53.286Z,1.80
2022-09-20T06:47:19.764Z,2.25
2022-09-20T06:49:46.699Z,2.28
2022-09-20T06:52:19.320Z,2.50
2022-09-20T06:54:55.676Z,2.10
2022-09-20T06:57:27.471Z,2.20
2022-09-20T06:59:54.147Z,1.73
2022-09-20T07:02:20.710Z,2.00
2022-09-20T07:04:47.389Z,2.10
2022-09-20T07:07:17.217Z,1.85
2022-09-20T07:09:43.748Z,2.20
2022-09-20T07:12:12.313Z,1.98
2022-09-20T07:14:39.771Z,1.77
2022-09-20T07:17:06.547Z,1.75
2022-09-20T07:19:33.885Z,1.77
2022-09-20T07:22:00.586Z,1.92
2022-09-20T07:24:27.390Z,1.77
2022-09-20T07:26:59.794Z,1.83
2022-09-20T07:29:27.267Z,2.05
2022-09-20T07:31:54.290Z,1.92
2022-09-20T07:34:20.905Z,1.92
2022-09-20T07:36:48.474Z,1.75
2022-09-20T07:39:16.438Z,1.95
2022-09-20T07:41:51.026Z,1.67
2022-09-20T07:44:24.272Z,1.80
2022-09-20T07:46:52.663Z,1.90
2022-09-20T07:49:19.894Z,1.85
2022-09-20T07:51:46.617Z,1.52
2022-09-20T07:54:13.237Z,2.22
2022-09-20T07:56:40.408Z,1.90
2022-09-20T07:59:07.370Z,1.88
2022-09-20T08:01:34.145Z,1.63
2022-09-20T08:04:01.811Z,1.48
2022-09-20T08:06:28.933Z,1.50
2022-09-20T08:08:55.544Z,1.60
2022-09-20T08:11:29.240Z,2.28
2022-09-20T08:14:07.157Z,1.40
2022-09-20T08:16:39.787Z,1.42
2022-09-20T08:19:06.646Z,1.67
2022-09-20T08:21:34.675Z,1.42
2022-09-20T08:24:01.643Z,1.40
2022-09-20T08:26:30.983Z,1.30
2022-09-20T08:28:59.633Z,1.80
2022-09-20T08:31:31.301Z,1.40
2022-09-20T08:33:59.012Z,1.80
2022-09-20T08:36:26.259Z,1.48
2022-09-20T08:41:48.544Z,2.08
2022-09-20T08:44:25.038Z,1.38
2022-09-20T08:47:03.210Z,1.13
2022-09-20T08:49:30.531Z,1.65
2022-09-20T08:51:59.104Z,1.42
2022-09-20T08:54:32.169Z,1.33
2022-09-20T08:57:07.002Z,1.10
2022-09-20T08:59:33.669Z,1.10
2022-09-20T09:02:01.180Z,1.08
2022-09-20T09:04:36.448Z,1.17
2022-09-20T09:07:03.643Z,0.80
2022-09-20T09:09:37.546Z,1.23
2022-09-20T09:12:05.035Z,1.20
2022-09-20T09:14:52.325Z,1.20
2022-09-20T09:17:27.235Z,1.80
2022-09-20T09:20:16.259Z,1.08
2022-09-20T09:22:45.591Z,1.48
2022-09-20T09:25:16.828Z,1.50
2022-09-20T09:27:50.261Z,1.05
2022-09-20T09:30:31.688Z,0.98
2022-09-20T09:33:21.611Z,1.20
2022-09-20T09:36:14.908Z,1.30
2022-09-20T09:38:47.586Z,1.42
2022-09-20T09:41:35.534Z,1.13
2022-09-20T09:44:23.678Z,0.70
2022-09-20T09:46:53.507Z,0.98
2022-09-20T09:49:22.286Z,0.88
2022-09-20T09:52:15.662Z,1.05
2022-09-20T09:54:47.547Z,0.55
2022-09-20T09:57:26.431Z,0.77
2022-09-20T10:00:11.153Z,1.17
2022-09-20T10:03:04.082Z,0.80
2022-09-20T10:05:52.054Z,0.77
2022-09-20T10:08:37.756Z,0.70
2022-09-20T10:11:22.979Z,1.05
2022-09-20T10:14:14.222Z,0.70
2022-09-20T10:16:59.757Z,0.52
2022-09-20T10:19:48.221Z,0.63
2022-09-20T10:23:30.143Z,0.68
2022-09-20T10:25:43.408Z,0.80
2022-09-20T10:28:48.271Z,0.63
2022-09-20T10:31:52.265Z,0.68
2022-09-20T10:34:46.005Z,0.70
2022-09-20T10:37:40.255Z,0.82
2022-09-20T10:40:25.579Z,0.70
2022-09-20T10:43:14.462Z,1.17
2022-09-20T10:46:30.732Z,0.82
2022-09-20T10:49:57.765Z,0.88
2022-09-20T10:52:37.941Z,0.70
2022-09-20T10:55:16.557Z,1.38
2022-09-20T10:58:21.704Z,0.80
2022-09-20T11:01:01.422Z,0.82
2022-09-20T11:04:01.633Z,0.65
2022-09-20T11:06:50.800Z,0.88
2022-09-20T11:09:25.053Z,1.10
2022-09-20T11:12:17.027Z,0.65
2022-09-20T11:15:05.723Z,0.45
2022-09-20T11:17:41.334Z,0.50
2022-09-20T11:20:20.675Z,0.88
2022-09-20T11:22:52.521Z,0.68
2022-09-20T11:25:29.701Z,0.88
2022-09-20T11:28:03.006Z,0.50
2022-09-20T11:30:31.866Z,0.50
2022-09-20T11:33:13.490Z,0.40
2022-09-20T11:35:47.947Z,0.55
2022-09-20T11:38:22.241Z,0.40
2022-09-20T11:41:02.474Z,0.57
2022-09-20T11:43:31.232Z,0.30
2022-09-20T11:46:08.342Z,0.65
2022-09-20T11:48:47.911Z,0.50
2022-09-20T11:51:20.625Z,0.40
2022-09-20T11:53:54.957Z,0.50
2022-09-20T11:56:30.870Z,0.40
2022-09-20T11:59:00.516Z,0.47
2022-09-20T12:01:32.430Z,0.50
2022-09-20T12:04:30.761Z,0.50
2022-09-20T12:07:04.687Z,0.75
2022-09-20T12:09:40.023Z,0.45
2022-09-20T12:12:28.183Z,0.50
2022-09-20T12:14:57.223Z,0.47
2022-09-20T12:17:45.850Z,0.30
2022-09-20T12:20:42.474Z,0.50
2022-09-20T12:23:37.581Z,0.57
2022-09-20T12:26:22.740Z,0.45
2022-09-20T12:28:50.793Z,0.50
2022-09-20T12:31:29.540Z,0.30
2022-09-20T12:34:15.319Z,0.77
2022-09-20T12:36:46.448Z,0.60
2022-09-20T12:39:16.239Z,0.30
2022-09-20T12:41:46.030Z,0.50
2022-09-20T12:44:41.789Z,0.30
2022-09-20T12:47:11.314Z,0.45
2022-09-20T12:50:05.944Z,0.30
2022-09-20T12:52:50.606Z,0.95
2022-09-20T12:55:43.653Z,0.40
2022-09-20T12:58:15.872Z,0.40
2022-09-20T13:00:59.133Z,0.43
2022-09-20T13:03:28.718Z,0.57
2022-09-20T13:06:07.151Z,0.68
2022-09-20T13:08:39.910Z,0.45
2022-09-20T13:11:06.805Z,0.55
2022-09-20T13:13:36.436Z,0.40
2022-09-20T13:16:06.447Z,0.45
2022-09-20T13:18:36.044Z,0.90
2022-09-20T13:21:06.964Z,0.40
2022-09-20T13:23:46.078Z,0.40
2022-09-20T13:26:14.712Z,0.52
2022-09-20T13:28:51.569Z,0.52
2022-09-20T13:31:21.256Z,0.40
2022-09-20T13:33:48.680Z,0.50
2022-09-20T13:36:22.096Z,0.60
2022-09-20T13:38:49.381Z,0.40
2022-09-20T13:41:16.288Z,0.50
2022-09-20T13:43:45.481Z,0.40
2022-09-20T13:46:21.368Z,0.50
2022-09-20T13:48:53.169Z,0.65
2022-09-20T13:51:24.585Z,0.50
2022-09-20T13:53:51.158Z,0.43
2022-09-20T13:56:28.651Z,0.70
2022-09-20T13:58:58.738Z,0.68
2022-09-20T14:01:34.455Z,0.50
2022-09-20T14:04:13.575Z,0.80
2022-09-20T14:06:42.262Z,0.80
2022-09-20T14:09:19.580Z,0.30
2022-09-20T14:11:46.723Z,0.63
2022-09-20T14:14:18.601Z,0.45
2022-09-20T14:16:49.369Z,0.75
2022-09-20T14:19:20.847Z,0.57
2022-09-20T14:21:48.235Z,0.45
2022-09-20T14:24:14.918Z,0.50
2022-09-20T14:26:42.967Z,0.43
2022-09-20T14:29:31.636Z,0.60
2022-09-20T14:32:02.332Z,0.70
2022-09-20T14:34:28.970Z,0.70
2022-09-20T14:37:06.374Z,0.90
2022-09-20T14:39:36.229Z,0.40
2022-09-20T14:42:03.098Z,1.10
2022-09-20T14:44:34.593Z,1.13
2022-09-20T14:47:14.289Z,0.50
2022-09-20T14:49:43.734Z,0.50
2022-09-20T14:52:36.415Z,0.47
2022-09-20T14:55:16.179Z,0.47
2022-09-20T14:57:42.941Z,0.57
2022-09-20T15:00:15.157Z,0.40
2022-09-20T15:02:44.204Z,0.50
2022-09-20T15:05:20.512Z,0.45
2022-09-20T15:07:47.621Z,1.10
2022-09-20T15:10:15.211Z,0.40
2022-09-20T15:12:44.724Z,0.47
2022-09-20T15:15:17.298Z,0.50
2022-09-20T15:17:45.331Z,0.60
2022-09-20T15:20:24.204Z,0.47
2022-09-20T15:22:51.430Z,0.65
2022-09-20T15:25:21.305Z,0.40
2022-09-20T15:27:50.896Z,0.40
2022-09-20T15:30:19.730Z,0.30
2022-09-20T15:32:47.019Z,0.50
2022-09-20T15:35:14.266Z,0.50
2022-09-20T15:37:41.240Z,0.40
2022-09-20T15:40:09.059Z,0.75
2022-09-20T15:42:37.892Z,0.80
2022-09-20T15:45:09.349Z,0.80
2022-09-20T15:47:37.414Z,0.60
2022-09-20T15:50:08.556Z,0.80
2022-09-20T15:52:37.349Z,0.52
2022-09-20T15:55:04.345Z,0.70
2022-09-20T15:57:31.879Z,0.40
2022-09-20T15:59:59.454Z,0.75
2022-09-20T16:02:27.005Z,0.40
2022-09-20T16:04:57.623Z,0.50
2022-09-20T16:07:27.370Z,0.60
2022-09-20T16:09:55.687Z,0.47
2022-09-20T16:12:24.563Z,0.50
2022-09-20T16:14:51.443Z,0.32
2022-09-20T16:17:18.431Z,0.30
2022-09-20T16:19:46.293Z,0.50
2022-09-20T16:22:13.333Z,0.28
2022-09-20T16:24:39.847Z,0.70
2022-09-20T16:27:07.729Z,0.40
2022-09-20T16:29:34.544Z,0.40
2022-09-20T16:32:03.513Z,0.38
2022-09-20T16:34:35.197Z,0.60
2022-09-20T16:37:16.108Z,0.50
2022-09-20T16:39:44.201Z,0.57
2022-09-20T16:42:12.771Z,0.32
2022-09-20T16:44:41.990Z,0.60
2022-09-20T16:47:18.294Z,0.32
2022-09-20T16:49:47.148Z,0.30
2022-09-20T16:52:14.081Z,0.60
2022-09-20T16:54:40.583Z,0.68
2022-09-20T16:57:07.962Z,0.40
2022-09-20T16:59:34.614Z,0.32
2022-09-20T17:02:01.333Z,0.60
2022-09-20T17:04:27.870Z,0.63
2022-09-20T17:06:54.659Z,0.60
2022-09-20T17:09:21.276Z,0.40
2022-09-20T17:11:50.216Z,0.82
2022-09-20T17:14:19.567Z,1.33
2022-09-20T17:16:50.210Z,0.77
2022-09-20T17:19:19.574Z,0.68
2022-09-20T17:21:49.944Z,0.85
2022-09-20T17:24:18.511Z,0.70
2022-09-20T17:26:45.892Z,1.10
2022-09-20T17:29:16.092Z,0.35
2022-09-20T17:31:48.750Z,0.77
2022-09-20T17:34:21.348Z,0.60
2022-09-20T17:36:48.519Z,0.77
2022-09-20T17:39:15.776Z,0.80
2022-09-20T17:41:44.833Z,0.90
2022-09-20T17:44:12.115Z,0.77
2022-09-20T17:46:41.164Z,0.60
2022-09-20T17:49:10.092Z,0.68
2022-09-20T17:51:40.130Z,1.00
2022-09-20T17:54:07.633Z,1.02
2022-09-20T17:56:35.640Z,0.77
2022-09-20T17:59:04.663Z,0.90
2022-09-20T18:01:33.102Z,0.65
2022-09-20T18:04:01.759Z,0.50
2022-09-20T18:06:30.836Z,0.77
2022-09-20T18:09:02.833Z,0.60
2022-09-20T18:11:33.830Z,0.70
2022-09-20T18:14:01.825Z,0.47
2022-09-20T18:16:28.695Z,0.90
2022-09-20T18:18:55.389Z,0.70
2022-09-20T18:21:26.380Z,0.80
2022-09-20T18:23:53.652Z,1.40
2022-09-20T18:26:25.781Z,0.68
2022-09-20T18:29:07.991Z,0.55
2022-09-20T18:31:42.867Z,0.50
2022-09-20T18:34:17.646Z,0.63
2022-09-20T18:36:48.234Z,0.63
2022-09-20T18:39:14.799Z,0.90
2022-09-20T18:41:43.011Z,0.60
2022-09-20T18:44:14.302Z,0.90
2022-09-20T18:46:41.466Z,0.60
2022-09-20T18:49:09.611Z,0.70
2022-09-20T18:51:39.929Z,0.90
2022-09-20T18:54:09.816Z,0.77
2022-09-20T18:56:38.612Z,0.77
2022-09-20T18:59:13.546Z,0.60
2022-09-20T19:01:49.473Z,0.80
2022-09-20T19:04:47.212Z,0.55
2022-09-20T19:07:45.993Z,0.73
2022-09-20T19:10:38.993Z,0.70
2022-09-20T19:13:30.344Z,0.63
2022-09-20T19:16:12.340Z,0.52
2022-09-20T19:19:07.337Z,1.77
2022-09-20T19:21:48.733Z,2.80
2022-09-20T19:24:33.877Z,0.80
2022-09-20T19:27:00.632Z,2.75
2022-09-20T19:29:28.424Z,2.90
2022-09-20T19:31:57.447Z,3.20
2022-09-20T19:34:27.213Z,4.78
2022-09-20T19:36:59.297Z,5.20
2022-09-20T19:39:44.108Z,6.68
2022-09-20T19:42:10.756Z,7.43
2022-09-20T19:44:50.740Z,8.80
2022-09-20T19:47:48.335Z,8.70
2022-09-20T19:50:46.279Z,6.20
2022-09-20T19:53:15.056Z,6.75
2022-09-20T19:55:46.212Z,5.93
2022-09-20T19:58:14.092Z,7.47
2022-09-20T20:00:44.517Z,7.88
2022-09-20T20:03:15.696Z,7.72
2022-09-20T20:05:56.670Z,8.50
2022-09-20T20:08:45.720Z,7.45
2022-09-20T20:11:25.955Z,6.60
2022-09-20T20:14:28.511Z,8.20
2022-09-20T20:17:06.049Z,6.55
2022-09-20T20:20:10.299Z,4.90
2022-09-20T20:22:58.269Z,6.43
2022-09-20T20:25:46.958Z,4.80
2022-09-20T20:28:14.001Z,5.10
2022-09-20T20:30:40.587Z,5.30
2022-09-20T20:33:07.279Z,6.22
2022-09-20T20:35:34.058Z,5.75
2022-09-20T20:38:00.632Z,6.40
2022-09-20T20:40:28.279Z,6.25
2022-09-20T20:43:01.924Z,5.55
2022-09-20T20:45:29.389Z,4.90
2022-09-20T20:47:58.490Z,4.47
2022-09-20T20:50:26.941Z,4.70
2022-09-20T20:52:57.213Z,4.10
2022-09-20T20:55:24.629Z,4.13
2022-09-20T20:57:57.254Z,5.70
2022-09-20T21:00:25.653Z,4.85
2022-09-20T21:02:59.867Z,4.65
2022-09-20T21:05:28.125Z,4.80
2022-09-20T21:07:55.447Z,4.22
2022-09-20T21:10:22.246Z,4.15
2022-09-20T21:12:53.632Z,4.60
2022-09-20T21:15:21.287Z,4.70
2022-09-20T21:17:52.583Z,4.03
2022-09-20T21:20:19.610Z,3.95
2022-09-20T21:22:46.107Z,3.28
2022-09-20T21:25:12.801Z,4.20
2022-09-20T21:27:39.435Z,3.85
2022-09-20T21:30:06.751Z,2.97
2022-09-20T21:32:33.247Z,3.45
2022-09-20T21:34:59.926Z,3.58
2022-09-20T21:37:26.649Z,2.97
2022-09-20T21:39:54.351Z,2.90
2022-09-20T21:42:20.850Z,3.38
2022-09-20T21:44:47.383Z,3.42
2022-09-20T21:47:19.966Z,3.15
2022-09-20T21:49:47.596Z,3.20
2022-09-20T21:52:14.282Z,3.25
2022-09-20T21:54:41.153Z,3.50
2022-09-20T21:57:07.917Z,4.10
2022-09-20T21:59:34.678Z,3.00
2022-09-20T22:02:01.759Z,3.33
2022-09-20T22:04:28.870Z,3.45
2022-09-20T22:06:55.631Z,3.20
2022-09-20T22:09:24.029Z,3.15
2022-09-20T22:11:50.679Z,3.50
2022-09-20T22:14:19.447Z,3.28
2022-09-20T22:16:47.518Z,2.72
2022-09-20T22:19:16.804Z,3.10
2022-09-20T22:21:45.556Z,2.85
2022-09-20T22:24:13.955Z,2.28
2022-09-20T22:26:46.346Z,2.92
2022-09-20T22:29:13.562Z,3.17
2022-09-20T22:31:46.673Z,3.35
2022-09-20T22:34:16.010Z,3.50
2022-09-20T22:36:42.939Z,3.10
2022-09-20T22:39:11.158Z,3.00
2022-09-20T22:41:38.770Z,3.10
2022-09-20T22:44:05.655Z,3.60
2022-09-20T22:46:33.606Z,3.83
2022-09-20T22:49:00.185Z,3.70
2022-09-20T22:51:33.103Z,2.65
2022-09-20T22:54:03.795Z,3.17
2022-09-20T22:56:31.293Z,4.43
2022-09-20T22:59:05.634Z,3.63
2022-09-20T23:01:38.537Z,4.05
2022-09-20T23:04:08.367Z,4.15
2022-09-20T23:06:39.621Z,3.70
2022-09-20T23:09:09.107Z,4.25
2022-09-20T23:11:36.141Z,4.00
2022-09-20T23:14:04.972Z,4.18
2022-09-20T23:16:34.662Z,4.50
2022-09-20T23:19:02.619Z,3.70
2022-09-20T23:21:29.681Z,4.07
2022-09-20T23:23:59.363Z,4.63
2022-09-20T23:26:27.280Z,4.35
2022-09-20T23:28:56.650Z,3.88
2022-09-20T23:31:23.711Z,4.47
2022-09-20T23:33:52.867Z,3.85
2022-09-20T23:36:21.157Z,4.22
2022-09-20T23:38:48.288Z,4.03
2022-09-20T23:41:17.756Z,4.25
2022-09-20T23:43:44.913Z,3.47
2022-09-20T23:46:13.705Z,3.67
2022-09-20T23:48:43.680Z,3.53
2022-09-20T23:51:13.072Z,3.35
2022-09-20T23:53:40.262Z,2.92
2022-09-20T23:56:07.136Z,3.35
2022-09-20T23:58:36.120Z,3.10
